sensor_id;sensor_type;location;lat;lon;timestamp;temperature;humidity
12817;DHT22;6473;51.552;6.716;2022-08-04T00:01:31;23.60;99.90
12817;DHT22;6473;51.552;6.716;2022-08-04T00:04:02;23.70;1.00
12817;DHT22;6473;51.552;6.716;2022-08-04T00:06:45;23.60;99.90
12817;DHT22;6473;51.552;6.716;2022-08-04T00:09:22;23.60;99.90
12817;DHT22;6473;51.552;6.716;2022-08-04T00:11:52;23.60;1.00
12817;DHT22;6473;51.552;6.716;2022-08-04T00:14:21;23.60;1.00
12817;DHT22;6473;51.552;6.716;2022-08-04T00:16:53;23.70;1.00
12817;DHT22;6473;51.552;6.716;2022-08-04T00:19:27;23.70;1.00
12817;DHT22;6473;51.552;6.716;2022-08-04T00:21:59;23.70;1.00
12817;DHT22;6473;51.552;6.716;2022-08-04T00:24:29;23.60;1.00
12817;DHT22;6473;51.552;6.716;2022-08-04T00:26:56;23.70;1.00
12817;DHT22;6473;51.552;6.716;2022-08-04T00:29:24;23.60;1.00
12817;DHT22;6473;51.552;6.716;2022-08-04T00:31:54;23.60;1.00
12817;DHT22;6473;51.552;6.716;2022-08-04T00:34:24;23.60;1.00
12817;DHT22;6473;51.552;6.716;2022-08-04T00:37:00;23.60;1.00
12817;DHT22;6473;51.552;6.716;2022-08-04T00:39:31;23.60;1.00
12817;DHT22;6473;51.552;6.716;2022-08-04T00:42:30;23.60;1.00
12817;DHT22;6473;51.552;6.716;2022-08-04T00:45:11;23.60;1.00
12817;DHT22;6473;51.552;6.716;2022-08-04T00:47:55;23.60;1.00
12817;DHT22;6473;51.552;6.716;2022-08-04T00:50:29;23.60;1.00
12817;DHT22;6473;51.552;6.716;2022-08-04T00:53:18;23.50;1.00
12817;DHT22;6473;51.552;6.716;2022-08-04T00:56:08;23.50;1.00
12817;DHT22;6473;51.552;6.716;2022-08-04T00:58:45;23.60;99.90
12817;DHT22;6473;51.552;6.716;2022-08-04T01:01:27;23.60;1.00
12817;DHT22;6473;51.552;6.716;2022-08-04T01:04:02;23.50;1.00
12817;DHT22;6473;51.552;6.716;2022-08-04T01:06:35;23.50;1.00
12817;DHT22;6473;51.552;6.716;2022-08-04T01:12:12;23.40;99.90
12817;DHT22;6473;51.552;6.716;2022-08-04T01:14:50;23.50;99.90
12817;DHT22;6473;51.552;6.716;2022-08-04T01:20:28;23.50;99.90
12817;DHT22;6473;51.552;6.716;2022-08-04T01:26:37;23.50;99.90
12817;DHT22;6473;51.552;6.716;2022-08-04T01:29:08;23.40;1.00
12817;DHT22;6473;51.552;6.716;2022-08-04T01:31:49;23.40;1.00
12817;DHT22;6473;51.552;6.716;2022-08-04T01:34:21;23.40;1.00
12817;DHT22;6473;51.552;6.716;2022-08-04T01:36:57;23.30;99.90
12817;DHT22;6473;51.552;6.716;2022-08-04T01:39:33;23.30;1.00
12817;DHT22;6473;51.552;6.716;2022-08-04T01:42:08;23.30;1.00
12817;DHT22;6473;51.552;6.716;2022-08-04T01:44:40;23.30;1.00
12817;DHT22;6473;51.552;6.716;2022-08-04T01:47:08;23.30;1.00
12817;DHT22;6473;51.552;6.716;2022-08-04T01:49:37;23.30;1.00
12817;DHT22;6473;51.552;6.716;2022-08-04T01:52:07;23.30;99.90
12817;DHT22;6473;51.552;6.716;2022-08-04T01:54:43;23.30;1.00
12817;DHT22;6473;51.552;6.716;2022-08-04T01:57:14;23.30;99.90
12817;DHT22;6473;51.552;6.716;2022-08-04T01:59:44;23.30;1.00
12817;DHT22;6473;51.552;6.716;2022-08-04T02:02:12;23.30;99.90
12817;DHT22;6473;51.552;6.716;2022-08-04T02:04:47;23.00;99.90
12817;DHT22;6473;51.552;6.716;2022-08-04T02:07:23;23.10;99.90
12817;DHT22;6473;51.552;6.716;2022-08-04T02:10:03;23.00;99.90
12817;DHT22;6473;51.552;6.716;2022-08-04T02:12:44;23.00;99.90
12817;DHT22;6473;51.552;6.716;2022-08-04T02:15:27;23.00;99.90
12817;DHT22;6473;51.552;6.716;2022-08-04T02:18:01;23.00;99.90
12817;DHT22;6473;51.552;6.716;2022-08-04T02:20:32;23.10;99.90
12817;DHT22;6473;51.552;6.716;2022-08-04T02:23:02;23.10;1.00
12817;DHT22;6473;51.552;6.716;2022-08-04T02:25:43;23.00;99.90
12817;DHT22;6473;51.552;6.716;2022-08-04T02:28:17;23.20;99.90
12817;DHT22;6473;51.552;6.716;2022-08-04T02:31:01;23.10;99.90
12817;DHT22;6473;51.552;6.716;2022-08-04T02:33:35;23.30;99.90
12817;DHT22;6473;51.552;6.716;2022-08-04T02:36:05;23.30;99.90
12817;DHT22;6473;51.552;6.716;2022-08-04T02:38:52;23.30;99.90
12817;DHT22;6473;51.552;6.716;2022-08-04T02:41:22;23.30;99.90
12817;DHT22;6473;51.552;6.716;2022-08-04T02:43:50;23.30;99.90
12817;DHT22;6473;51.552;6.716;2022-08-04T02:46:20;23.20;1.00
12817;DHT22;6473;51.552;6.716;2022-08-04T02:48:49;23.20;1.00
12817;DHT22;6473;51.552;6.716;2022-08-04T02:51:21;23.30;99.90
12817;DHT22;6473;51.552;6.716;2022-08-04T02:53:52;23.20;99.90
12817;DHT22;6473;51.552;6.716;2022-08-04T02:56:21;23.20;99.90
12817;DHT22;6473;51.552;6.716;2022-08-04T02:58:53;23.20;99.90
12817;DHT22;6473;51.552;6.716;2022-08-04T03:01:23;23.20;97.10
12817;DHT22;6473;51.552;6.716;2022-08-04T03:04:01;23.10;99.90
12817;DHT22;6473;51.552;6.716;2022-08-04T03:10:11;23.00;99.90
12817;DHT22;6473;51.552;6.716;2022-08-04T03:13:15;23.10;1.00
12817;DHT22;6473;51.552;6.716;2022-08-04T03:16:01;23.00;99.90
12817;DHT22;6473;51.552;6.716;2022-08-04T03:21:48;22.90;99.90
12817;DHT22;6473;51.552;6.716;2022-08-04T03:24:55;22.90;99.90
12817;DHT22;6473;51.552;6.716;2022-08-04T03:30:51;22.90;1.00
12817;DHT22;6473;51.552;6.716;2022-08-04T03:33:54;22.90;1.00
12817;DHT22;6473;51.552;6.716;2022-08-04T03:37:02;22.90;1.00
12817;DHT22;6473;51.552;6.716;2022-08-04T03:40:04;22.80;1.00
12817;DHT22;6473;51.552;6.716;2022-08-04T03:46:25;22.70;1.00
12817;DHT22;6473;51.552;6.716;2022-08-04T03:49:11;22.60;1.00
12817;DHT22;6473;51.552;6.716;2022-08-04T03:51:55;22.60;1.00
12817;DHT22;6473;51.552;6.716;2022-08-04T03:55:20;22.60;1.00
12817;DHT22;6473;51.552;6.716;2022-08-04T03:58:22;22.60;1.00
12817;DHT22;6473;51.552;6.716;2022-08-04T04:01:01;22.60;99.90
12817;DHT22;6473;51.552;6.716;2022-08-04T04:03:50;22.60;99.90
12817;DHT22;6473;51.552;6.716;2022-08-04T04:06:42;22.50;99.90
12817;DHT22;6473;51.552;6.716;2022-08-04T04:12:19;22.40;1.00
12817;DHT22;6473;51.552;6.716;2022-08-04T04:15:21;22.50;1.00
12817;DHT22;6473;51.552;6.716;2022-08-04T04:21:14;22.40;99.90
12817;DHT22;6473;51.552;6.716;2022-08-04T04:24:14;22.40;99.90
12817;DHT22;6473;51.552;6.716;2022-08-04T04:26:59;22.40;99.90
12817;DHT22;6473;51.552;6.716;2022-08-04T04:30:05;22.40;99.90
12817;DHT22;6473;51.552;6.716;2022-08-04T04:33:09;22.50;99.90
12817;DHT22;6473;51.552;6.716;2022-08-04T04:36:02;22.50;1.00
12817;DHT22;6473;51.552;6.716;2022-08-04T04:41:43;22.40;81.10
12817;DHT22;6473;51.552;6.716;2022-08-04T04:44:32;22.40;1.00
12817;DHT22;6473;51.552;6.716;2022-08-04T04:47:12;22.40;99.90
12817;DHT22;6473;51.552;6.716;2022-08-04T04:49:47;22.30;99.90
12817;DHT22;6473;51.552;6.716;2022-08-04T04:52:23;22.40;1.00
12817;DHT22;6473;51.552;6.716;2022-08-04T04:55:06;22.30;1.00
12817;DHT22;6473;51.552;6.716;2022-08-04T04:57:37;22.30;1.00
12817;DHT22;6473;51.552;6.716;2022-08-04T05:00:08;22.40;1.00
12817;DHT22;6473;51.552;6.716;2022-08-04T05:02:59;22.50;1.00
12817;DHT22;6473;51.552;6.716;2022-08-04T05:06:06;22.60;1.00
12817;DHT22;6473;51.552;6.716;2022-08-04T05:09:15;22.70;1.00
12817;DHT22;6473;51.552;6.716;2022-08-04T05:12:13;22.80;1.00
12817;DHT22;6473;51.552;6.716;2022-08-04T05:14:48;22.90;1.00
12817;DHT22;6473;51.552;6.716;2022-08-04T05:17:51;22.90;1.00
12817;DHT22;6473;51.552;6.716;2022-08-04T05:20:24;23.00;99.90
12817;DHT22;6473;51.552;6.716;2022-08-04T05:22:55;23.00;99.90
12817;DHT22;6473;51.552;6.716;2022-08-04T05:29:08;23.20;99.90
12817;DHT22;6473;51.552;6.716;2022-08-04T05:31:43;23.30;99.90
12817;DHT22;6473;51.552;6.716;2022-08-04T05:34:30;23.40;1.00
12817;DHT22;6473;51.552;6.716;2022-08-04T05:37:04;23.50;99.90
12817;DHT22;6473;51.552;6.716;2022-08-04T05:39:37;23.50;99.90
12817;DHT22;6473;51.552;6.716;2022-08-04T05:42:09;23.60;1.00
12817;DHT22;6473;51.552;6.716;2022-08-04T05:45:24;23.90;99.90
12817;DHT22;6473;51.552;6.716;2022-08-04T05:47:52;23.90;1.00
12817;DHT22;6473;51.552;6.716;2022-08-04T05:50:22;24.20;99.90
12817;DHT22;6473;51.552;6.716;2022-08-04T05:52:56;24.60;99.90
12817;DHT22;6473;51.552;6.716;2022-08-04T05:55:25;24.60;99.90
12817;DHT22;6473;51.552;6.716;2022-08-04T05:58:07;24.90;99.90
12817;DHT22;6473;51.552;6.716;2022-08-04T06:00:44;24.80;99.90
12817;DHT22;6473;51.552;6.716;2022-08-04T06:03:40;25.10;99.90
12817;DHT22;6473;51.552;6.716;2022-08-04T06:06:14;25.30;99.90
12817;DHT22;6473;51.552;6.716;2022-08-04T06:08:46;25.40;1.00
12817;DHT22;6473;51.552;6.716;2022-08-04T06:11:13;25.90;1.00
12817;DHT22;6473;51.552;6.716;2022-08-04T06:13:45;26.40;1.00
12817;DHT22;6473;51.552;6.716;2022-08-04T06:16:56;26.80;1.00
12817;DHT22;6473;51.552;6.716;2022-08-04T06:19:26;26.90;1.00
12817;DHT22;6473;51.552;6.716;2022-08-04T06:21:58;27.00;1.00
12817;DHT22;6473;51.552;6.716;2022-08-04T06:24:32;27.20;1.00
12817;DHT22;6473;51.552;6.716;2022-08-04T06:27:01;27.20;1.00
12817;DHT22;6473;51.552;6.716;2022-08-04T06:29:30;27.20;1.00
12817;DHT22;6473;51.552;6.716;2022-08-04T06:32:02;28.00;1.00
12817;DHT22;6473;51.552;6.716;2022-08-04T06:34:38;28.80;1.00
12817;DHT22;6473;51.552;6.716;2022-08-04T06:37:08;28.80;1.00
12817;DHT22;6473;51.552;6.716;2022-08-04T06:39:35;29.50;1.00
12817;DHT22;6473;51.552;6.716;2022-08-04T06:42:05;29.80;1.00
12817;DHT22;6473;51.552;6.716;2022-08-04T06:44:32;29.80;1.00
12817;DHT22;6473;51.552;6.716;2022-08-04T06:47:00;29.20;1.00
12817;DHT22;6473;51.552;6.716;2022-08-04T06:49:28;29.20;1.00
12817;DHT22;6473;51.552;6.716;2022-08-04T06:51:57;29.20;99.90
12817;DHT22;6473;51.552;6.716;2022-08-04T06:54:25;28.90;1.00
12817;DHT22;6473;51.552;6.716;2022-08-04T06:56:53;28.60;1.00
12817;DHT22;6473;51.552;6.716;2022-08-04T06:59:22;28.60;1.00
12817;DHT22;6473;51.552;6.716;2022-08-04T07:01:50;28.70;1.00
12817;DHT22;6473;51.552;6.716;2022-08-04T07:04:18;29.00;1.00
12817;DHT22;6473;51.552;6.716;2022-08-04T07:06:45;28.50;99.90
12817;DHT22;6473;51.552;6.716;2022-08-04T07:09:12;28.00;1.00
12817;DHT22;6473;51.552;6.716;2022-08-04T07:11:40;27.90;1.00
12817;DHT22;6473;51.552;6.716;2022-08-04T07:14:07;27.60;1.00
12817;DHT22;6473;51.552;6.716;2022-08-04T07:16:35;27.60;1.00
12817;DHT22;6473;51.552;6.716;2022-08-04T07:19:03;27.10;1.00
12817;DHT22;6473;51.552;6.716;2022-08-04T07:21:40;27.10;1.00
12817;DHT22;6473;51.552;6.716;2022-08-04T07:24:13;28.00;1.00
12817;DHT22;6473;51.552;6.716;2022-08-04T07:26:42;28.10;1.00
12817;DHT22;6473;51.552;6.716;2022-08-04T07:29:11;29.00;1.00
12817;DHT22;6473;51.552;6.716;2022-08-04T07:31:37;29.30;1.00
12817;DHT22;6473;51.552;6.716;2022-08-04T07:34:05;30.90;1.00
12817;DHT22;6473;51.552;6.716;2022-08-04T07:36:32;30.90;1.00
12817;DHT22;6473;51.552;6.716;2022-08-04T07:38:59;31.10;1.00
12817;DHT22;6473;51.552;6.716;2022-08-04T07:41:26;31.80;1.00
12817;DHT22;6473;51.552;6.716;2022-08-04T07:43:55;32.10;1.00
12817;DHT22;6473;51.552;6.716;2022-08-04T07:46:22;32.10;1.00
12817;DHT22;6473;51.552;6.716;2022-08-04T07:51:17;32.00;1.00
12817;DHT22;6473;51.552;6.716;2022-08-04T07:53:45;32.30;1.00
12817;DHT22;6473;51.552;6.716;2022-08-04T07:56:14;32.60;1.00
12817;DHT22;6473;51.552;6.716;2022-08-04T07:58:42;32.50;1.00
12817;DHT22;6473;51.552;6.716;2022-08-04T08:01:10;32.40;1.00
12817;DHT22;6473;51.552;6.716;2022-08-04T08:03:38;32.40;1.00
12817;DHT22;6473;51.552;6.716;2022-08-04T08:06:06;32.30;1.00
12817;DHT22;6473;51.552;6.716;2022-08-04T08:08:36;32.30;1.00
12817;DHT22;6473;51.552;6.716;2022-08-04T08:11:03;33.30;1.00
12817;DHT22;6473;51.552;6.716;2022-08-04T08:13:31;33.00;1.00
12817;DHT22;6473;51.552;6.716;2022-08-04T08:15:58;33.40;1.00
12817;DHT22;6473;51.552;6.716;2022-08-04T08:18:28;33.40;1.00
12817;DHT22;6473;51.552;6.716;2022-08-04T08:20:55;34.30;1.00
12817;DHT22;6473;51.552;6.716;2022-08-04T08:23:23;34.70;1.00
12817;DHT22;6473;51.552;6.716;2022-08-04T08:25:51;34.50;1.00
12817;DHT22;6473;51.552;6.716;2022-08-04T08:28:18;35.10;1.00
12817;DHT22;6473;51.552;6.716;2022-08-04T08:30:45;35.00;1.00
12817;DHT22;6473;51.552;6.716;2022-08-04T08:33:13;35.20;1.00
12817;DHT22;6473;51.552;6.716;2022-08-04T08:35:47;34.40;1.00
12817;DHT22;6473;51.552;6.716;2022-08-04T08:38:18;35.20;1.00
12817;DHT22;6473;51.552;6.716;2022-08-04T08:40:51;35.30;1.00
12817;DHT22;6473;51.552;6.716;2022-08-04T08:43:29;35.60;1.00
12817;DHT22;6473;51.552;6.716;2022-08-04T08:46:37;35.80;1.00
12817;DHT22;6473;51.552;6.716;2022-08-04T08:49:29;36.20;1.00
12817;DHT22;6473;51.552;6.716;2022-08-04T08:52:19;36.30;1.00
12817;DHT22;6473;51.552;6.716;2022-08-04T08:55:17;37.10;1.00
12817;DHT22;6473;51.552;6.716;2022-08-04T08:58:05;37.80;1.00
12817;DHT22;6473;51.552;6.716;2022-08-04T09:00:40;37.90;1.00
12817;DHT22;6473;51.552;6.716;2022-08-04T09:03:39;36.80;1.00
12817;DHT22;6473;51.552;6.716;2022-08-04T09:06:36;36.00;1.00
12817;DHT22;6473;51.552;6.716;2022-08-04T09:09:34;36.00;1.00
12817;DHT22;6473;51.552;6.716;2022-08-04T09:12:11;35.30;1.00
12817;DHT22;6473;51.552;6.716;2022-08-04T09:14:46;34.80;1.00
12817;DHT22;6473;51.552;6.716;2022-08-04T09:17:20;33.60;1.00
12817;DHT22;6473;51.552;6.716;2022-08-04T09:19:54;33.40;1.00
12817;DHT22;6473;51.552;6.716;2022-08-04T09:22:27;33.20;1.00
12817;DHT22;6473;51.552;6.716;2022-08-04T09:24:59;34.00;1.00
12817;DHT22;6473;51.552;6.716;2022-08-04T09:27:34;34.20;1.00
12817;DHT22;6473;51.552;6.716;2022-08-04T09:30:05;34.20;1.00
12817;DHT22;6473;51.552;6.716;2022-08-04T09:32:40;34.90;1.00
12817;DHT22;6473;51.552;6.716;2022-08-04T09:35:18;34.90;1.00
12817;DHT22;6473;51.552;6.716;2022-08-04T09:37:56;35.10;1.00
12817;DHT22;6473;51.552;6.716;2022-08-04T09:40:32;35.40;1.00
12817;DHT22;6473;51.552;6.716;2022-08-04T09:45:52;36.00;1.00
12817;DHT22;6473;51.552;6.716;2022-08-04T09:48:30;36.00;1.00
12817;DHT22;6473;51.552;6.716;2022-08-04T09:51:03;36.10;1.00
12817;DHT22;6473;51.552;6.716;2022-08-04T09:53:45;35.60;1.00
12817;DHT22;6473;51.552;6.716;2022-08-04T09:56:23;34.80;1.00
12817;DHT22;6473;51.552;6.716;2022-08-04T09:59:00;34.80;1.00
12817;DHT22;6473;51.552;6.716;2022-08-04T10:01:32;35.10;1.00
12817;DHT22;6473;51.552;6.716;2022-08-04T10:04:01;35.00;1.00
12817;DHT22;6473;51.552;6.716;2022-08-04T10:06:45;34.50;1.00
12817;DHT22;6473;51.552;6.716;2022-08-04T10:09:27;34.20;1.00
12817;DHT22;6473;51.552;6.716;2022-08-04T10:12:09;34.20;1.00
12817;DHT22;6473;51.552;6.716;2022-08-04T10:14:42;34.80;1.00
12817;DHT22;6473;51.552;6.716;2022-08-04T10:17:28;35.00;1.00
12817;DHT22;6473;51.552;6.716;2022-08-04T10:20:05;35.50;1.00
12817;DHT22;6473;51.552;6.716;2022-08-04T10:22:37;36.10;1.00
12817;DHT22;6473;51.552;6.716;2022-08-04T10:25:16;36.60;1.00
12817;DHT22;6473;51.552;6.716;2022-08-04T10:27:53;36.00;1.00
12817;DHT22;6473;51.552;6.716;2022-08-04T10:30:21;36.30;1.00
12817;DHT22;6473;51.552;6.716;2022-08-04T10:32:52;36.30;1.00
12817;DHT22;6473;51.552;6.716;2022-08-04T10:35:22;36.10;1.00
12817;DHT22;6473;51.552;6.716;2022-08-04T10:38:00;36.40;1.00
12817;DHT22;6473;51.552;6.716;2022-08-04T10:40:33;36.40;1.00
12817;DHT22;6473;51.552;6.716;2022-08-04T10:43:08;36.30;1.00
12817;DHT22;6473;51.552;6.716;2022-08-04T10:45:41;36.40;1.00
12817;DHT22;6473;51.552;6.716;2022-08-04T10:48:19;36.70;1.00
12817;DHT22;6473;51.552;6.716;2022-08-04T10:50:58;36.60;1.00
12817;DHT22;6473;51.552;6.716;2022-08-04T10:53:28;36.30;1.00
12817;DHT22;6473;51.552;6.716;2022-08-04T10:56:01;36.30;1.00
12817;DHT22;6473;51.552;6.716;2022-08-04T10:58:35;35.20;1.00
12817;DHT22;6473;51.552;6.716;2022-08-04T11:01:24;35.20;1.00
12817;DHT22;6473;51.552;6.716;2022-08-04T11:03:56;34.80;1.00
12817;DHT22;6473;51.552;6.716;2022-08-04T11:06:26;34.60;1.00
12817;DHT22;6473;51.552;6.716;2022-08-04T11:08:54;34.30;1.00
12817;DHT22;6473;51.552;6.716;2022-08-04T11:11:29;34.20;1.00
12817;DHT22;6473;51.552;6.716;2022-08-04T11:14:01;33.40;1.00
12817;DHT22;6473;51.552;6.716;2022-08-04T11:16:32;33.10;1.00
12817;DHT22;6473;51.552;6.716;2022-08-04T11:19:16;32.60;1.00
12817;DHT22;6473;51.552;6.716;2022-08-04T11:21:55;32.30;1.00
12817;DHT22;6473;51.552;6.716;2022-08-04T11:24:25;32.20;1.00
12817;DHT22;6473;51.552;6.716;2022-08-04T11:26:57;32.20;1.00
12817;DHT22;6473;51.552;6.716;2022-08-04T11:29:33;32.10;1.00
12817;DHT22;6473;51.552;6.716;2022-08-04T11:32:03;32.10;1.00
12817;DHT22;6473;51.552;6.716;2022-08-04T11:34:33;32.00;1.00
12817;DHT22;6473;51.552;6.716;2022-08-04T11:37:05;32.00;1.00
12817;DHT22;6473;51.552;6.716;2022-08-04T11:39:36;32.20;1.00
12817;DHT22;6473;51.552;6.716;2022-08-04T11:42:09;32.50;1.00
12817;DHT22;6473;51.552;6.716;2022-08-04T11:44:45;32.50;1.00
12817;DHT22;6473;51.552;6.716;2022-08-04T11:47:22;32.50;1.00
12817;DHT22;6473;51.552;6.716;2022-08-04T11:49:55;32.20;1.00
12817;DHT22;6473;51.552;6.716;2022-08-04T11:52:25;32.30;1.00
12817;DHT22;6473;51.552;6.716;2022-08-04T11:54:53;32.10;1.00
12817;DHT22;6473;51.552;6.716;2022-08-04T11:57:21;32.00;1.00
12817;DHT22;6473;51.552;6.716;2022-08-04T11:59:52;30.90;1.00
12817;DHT22;6473;51.552;6.716;2022-08-04T12:05:30;30.20;1.00
12817;DHT22;6473;51.552;6.716;2022-08-04T12:08:04;29.90;1.00
12817;DHT22;6473;51.552;6.716;2022-08-04T12:10:44;29.90;1.00
12817;DHT22;6473;51.552;6.716;2022-08-04T12:13:19;29.80;1.00
12817;DHT22;6473;51.552;6.716;2022-08-04T12:16:00;29.90;1.00
12817;DHT22;6473;51.552;6.716;2022-08-04T12:18:33;29.90;1.00
12817;DHT22;6473;51.552;6.716;2022-08-04T12:21:08;29.80;1.00
12817;DHT22;6473;51.552;6.716;2022-08-04T12:23:39;29.80;1.00
12817;DHT22;6473;51.552;6.716;2022-08-04T12:26:09;29.90;1.00
12817;DHT22;6473;51.552;6.716;2022-08-04T12:28:46;29.90;1.00
12817;DHT22;6473;51.552;6.716;2022-08-04T12:31:22;29.70;1.00
12817;DHT22;6473;51.552;6.716;2022-08-04T12:33:54;29.60;1.00
12817;DHT22;6473;51.552;6.716;2022-08-04T12:36:28;29.70;1.00
12817;DHT22;6473;51.552;6.716;2022-08-04T12:39:02;29.70;1.00
12817;DHT22;6473;51.552;6.716;2022-08-04T12:41:37;29.90;1.00
12817;DHT22;6473;51.552;6.716;2022-08-04T12:44:06;29.90;1.00
12817;DHT22;6473;51.552;6.716;2022-08-04T12:46:38;29.90;1.00
12817;DHT22;6473;51.552;6.716;2022-08-04T12:49:06;29.90;1.00
12817;DHT22;6473;51.552;6.716;2022-08-04T12:51:37;29.90;1.00
12817;DHT22;6473;51.552;6.716;2022-08-04T12:54:06;30.00;1.00
12817;DHT22;6473;51.552;6.716;2022-08-04T12:56:34;30.20;1.00
12817;DHT22;6473;51.552;6.716;2022-08-04T12:59:04;30.20;1.00
12817;DHT22;6473;51.552;6.716;2022-08-04T13:01:32;30.20;1.00
12817;DHT22;6473;51.552;6.716;2022-08-04T13:04:08;30.20;1.00
12817;DHT22;6473;51.552;6.716;2022-08-04T13:06:38;30.30;1.00
12817;DHT22;6473;51.552;6.716;2022-08-04T13:09:09;30.30;1.00
12817;DHT22;6473;51.552;6.716;2022-08-04T13:11:39;30.30;1.00
12817;DHT22;6473;51.552;6.716;2022-08-04T13:14:09;30.30;1.00
12817;DHT22;6473;51.552;6.716;2022-08-04T13:16:38;30.20;1.00
12817;DHT22;6473;51.552;6.716;2022-08-04T13:19:07;30.20;1.00
12817;DHT22;6473;51.552;6.716;2022-08-04T13:21:39;30.30;1.00
12817;DHT22;6473;51.552;6.716;2022-08-04T13:24:11;30.40;1.00
12817;DHT22;6473;51.552;6.716;2022-08-04T13:26:47;30.40;1.00
12817;DHT22;6473;51.552;6.716;2022-08-04T13:29:16;30.10;1.00
12817;DHT22;6473;51.552;6.716;2022-08-04T13:31:45;30.20;1.00
12817;DHT22;6473;51.552;6.716;2022-08-04T13:34:14;30.30;1.00
12817;DHT22;6473;51.552;6.716;2022-08-04T13:36:42;30.30;1.00
12817;DHT22;6473;51.552;6.716;2022-08-04T13:39:16;30.40;1.00
12817;DHT22;6473;51.552;6.716;2022-08-04T13:41:46;30.50;1.00
12817;DHT22;6473;51.552;6.716;2022-08-04T13:44:18;30.70;1.00
12817;DHT22;6473;51.552;6.716;2022-08-04T13:46:49;30.70;1.00
12817;DHT22;6473;51.552;6.716;2022-08-04T13:49:19;30.70;1.00
12817;DHT22;6473;51.552;6.716;2022-08-04T13:51:48;30.70;1.00
12817;DHT22;6473;51.552;6.716;2022-08-04T13:54:17;30.70;1.00
12817;DHT22;6473;51.552;6.716;2022-08-04T13:56:47;30.50;1.00
12817;DHT22;6473;51.552;6.716;2022-08-04T13:59:17;30.70;1.00
12817;DHT22;6473;51.552;6.716;2022-08-04T14:01:59;30.70;1.00
12817;DHT22;6473;51.552;6.716;2022-08-04T14:04:28;31.30;1.00
12817;DHT22;6473;51.552;6.716;2022-08-04T14:07:03;31.30;1.00
12817;DHT22;6473;51.552;6.716;2022-08-04T14:09:32;31.30;1.00
12817;DHT22;6473;51.552;6.716;2022-08-04T14:12:05;31.30;1.00
12817;DHT22;6473;51.552;6.716;2022-08-04T14:14:35;31.30;1.00
12817;DHT22;6473;51.552;6.716;2022-08-04T14:17:04;31.30;1.00
12817;DHT22;6473;51.552;6.716;2022-08-04T14:19:49;31.40;1.00
12817;DHT22;6473;51.552;6.716;2022-08-04T14:22:44;31.20;1.00
12817;DHT22;6473;51.552;6.716;2022-08-04T14:25:15;31.30;1.00
12817;DHT22;6473;51.552;6.716;2022-08-04T14:27:45;31.40;1.00
12817;DHT22;6473;51.552;6.716;2022-08-04T14:30:21;31.50;1.00
12817;DHT22;6473;51.552;6.716;2022-08-04T14:32:59;31.20;1.00
12817;DHT22;6473;51.552;6.716;2022-08-04T14:35:28;31.00;1.00
12817;DHT22;6473;51.552;6.716;2022-08-04T14:37:59;30.80;1.00
12817;DHT22;6473;51.552;6.716;2022-08-04T14:40:29;30.90;1.00
12817;DHT22;6473;51.552;6.716;2022-08-04T14:42:57;30.90;1.00
12817;DHT22;6473;51.552;6.716;2022-08-04T14:45:29;30.80;1.00
12817;DHT22;6473;51.552;6.716;2022-08-04T14:47:56;30.70;1.00
12817;DHT22;6473;51.552;6.716;2022-08-04T14:50:37;30.50;1.00
12817;DHT22;6473;51.552;6.716;2022-08-04T14:53:06;30.50;1.00
12817;DHT22;6473;51.552;6.716;2022-08-04T14:55:34;30.20;1.00
12817;DHT22;6473;51.552;6.716;2022-08-04T14:58:01;29.80;1.00
12817;DHT22;6473;51.552;6.716;2022-08-04T15:00:31;29.60;1.00
12817;DHT22;6473;51.552;6.716;2022-08-04T15:03:01;29.70;1.00
12817;DHT22;6473;51.552;6.716;2022-08-04T15:05:29;29.60;1.00
12817;DHT22;6473;51.552;6.716;2022-08-04T15:07:58;29.60;1.00
12817;DHT22;6473;51.552;6.716;2022-08-04T15:10:25;29.30;1.00
12817;DHT22;6473;51.552;6.716;2022-08-04T15:12:52;29.40;1.00
12817;DHT22;6473;51.552;6.716;2022-08-04T15:15:20;29.20;1.00
12817;DHT22;6473;51.552;6.716;2022-08-04T15:17:48;28.90;1.00
12817;DHT22;6473;51.552;6.716;2022-08-04T15:20:16;28.90;1.00
12817;DHT22;6473;51.552;6.716;2022-08-04T15:22:43;28.80;1.00
12817;DHT22;6473;51.552;6.716;2022-08-04T15:25:11;28.50;1.00
12817;DHT22;6473;51.552;6.716;2022-08-04T15:27:39;28.50;1.00
12817;DHT22;6473;51.552;6.716;2022-08-04T15:30:08;28.50;1.00
12817;DHT22;6473;51.552;6.716;2022-08-04T15:32:38;28.50;1.00
12817;DHT22;6473;51.552;6.716;2022-08-04T15:35:08;28.30;1.00
12817;DHT22;6473;51.552;6.716;2022-08-04T15:37:41;28.40;1.00
12817;DHT22;6473;51.552;6.716;2022-08-04T15:40:13;28.50;1.00
12817;DHT22;6473;51.552;6.716;2022-08-04T15:42:45;28.60;1.00
12817;DHT22;6473;51.552;6.716;2022-08-04T15:45:23;28.60;1.00
12817;DHT22;6473;51.552;6.716;2022-08-04T15:48:21;28.50;1.00
12817;DHT22;6473;51.552;6.716;2022-08-04T15:51:06;28.50;1.00
12817;DHT22;6473;51.552;6.716;2022-08-04T15:56:47;28.20;1.00
12817;DHT22;6473;51.552;6.716;2022-08-04T15:59:15;28.10;1.00
12817;DHT22;6473;51.552;6.716;2022-08-04T16:01:42;28.20;1.00
12817;DHT22;6473;51.552;6.716;2022-08-04T16:04:30;28.30;1.00
12817;DHT22;6473;51.552;6.716;2022-08-04T16:07:05;28.10;1.00
12817;DHT22;6473;51.552;6.716;2022-08-04T16:09:31;28.20;1.00
12817;DHT22;6473;51.552;6.716;2022-08-04T16:11:59;28.20;1.00
12817;DHT22;6473;51.552;6.716;2022-08-04T16:14:31;28.20;1.00
12817;DHT22;6473;51.552;6.716;2022-08-04T16:17:17;28.30;1.00
12817;DHT22;6473;51.552;6.716;2022-08-04T16:19:51;28.30;1.00
12817;DHT22;6473;51.552;6.716;2022-08-04T16:22:42;28.40;1.00
12817;DHT22;6473;51.552;6.716;2022-08-04T16:25:16;28.30;1.00
12817;DHT22;6473;51.552;6.716;2022-08-04T16:28:05;28.20;1.00
12817;DHT22;6473;51.552;6.716;2022-08-04T16:30:39;28.20;1.00
12817;DHT22;6473;51.552;6.716;2022-08-04T16:33:08;28.20;1.00
12817;DHT22;6473;51.552;6.716;2022-08-04T16:35:34;28.20;1.00
12817;DHT22;6473;51.552;6.716;2022-08-04T16:38:13;28.20;1.00
12817;DHT22;6473;51.552;6.716;2022-08-04T16:40:41;28.40;1.00
12817;DHT22;6473;51.552;6.716;2022-08-04T16:43:14;28.20;1.00
12817;DHT22;6473;51.552;6.716;2022-08-04T16:45:52;28.00;1.00
12817;DHT22;6473;51.552;6.716;2022-08-04T16:48:21;28.00;1.00
12817;DHT22;6473;51.552;6.716;2022-08-04T16:51:00;28.10;1.00
12817;DHT22;6473;51.552;6.716;2022-08-04T16:53:32;27.90;1.00
12817;DHT22;6473;51.552;6.716;2022-08-04T16:56:00;27.80;1.00
12817;DHT22;6473;51.552;6.716;2022-08-04T16:58:31;27.60;1.00
12817;DHT22;6473;51.552;6.716;2022-08-04T17:01:06;27.60;1.00
12817;DHT22;6473;51.552;6.716;2022-08-04T17:03:34;27.60;1.00
12817;DHT22;6473;51.552;6.716;2022-08-04T17:06:06;27.40;1.00
12817;DHT22;6473;51.552;6.716;2022-08-04T17:08:34;27.40;1.00
12817;DHT22;6473;51.552;6.716;2022-08-04T17:11:05;27.30;1.00
12817;DHT22;6473;51.552;6.716;2022-08-04T17:13:37;27.20;1.00
12817;DHT22;6473;51.552;6.716;2022-08-04T17:16:07;27.20;1.00
12817;DHT22;6473;51.552;6.716;2022-08-04T17:18:35;27.30;1.00
12817;DHT22;6473;51.552;6.716;2022-08-04T17:21:05;27.30;1.00
12817;DHT22;6473;51.552;6.716;2022-08-04T17:23:37;27.60;1.00
12817;DHT22;6473;51.552;6.716;2022-08-04T17:26:08;27.60;1.00
12817;DHT22;6473;51.552;6.716;2022-08-04T17:28:37;27.80;1.00
12817;DHT22;6473;51.552;6.716;2022-08-04T17:31:06;27.80;1.00
12817;DHT22;6473;51.552;6.716;2022-08-04T17:33:34;27.90;1.00
12817;DHT22;6473;51.552;6.716;2022-08-04T17:36:02;27.90;1.00
12817;DHT22;6473;51.552;6.716;2022-08-04T17:38:31;27.90;1.00